sensor_id;sensor_type;location;lat;lon;timestamp;pressure;altitude;pressure_sealevel;temperature;humidity
62926;BME280;55732;52.248;-0.844;2022-11-14T00:00:39;100472.98;;;9.04;99.95
62926;BME280;55732;52.248;-0.844;2022-11-14T00:03:06;100467.17;;;9.01;99.97
62926;BME280;55732;52.248;-0.844;2022-11-14T00:05:33;100467.34;;;9.00;99.94
62926;BME280;55732;52.248;-0.844;2022-11-14T00:08:02;100463.30;;;8.99;99.98
62926;BME280;55732;52.248;-0.844;2022-11-14T00:10:28;100454.86;;;8.97;99.99
62926;BME280;55732;52.248;-0.844;2022-11-14T00:12:53;100451.70;;;8.96;99.96
62926;BME280;55732;52.248;-0.844;2022-11-14T00:15:18;100451.19;;;8.96;100.00
62926;BME280;55732;52.248;-0.844;2022-11-14T00:17:44;100451.54;;;8.96;100.00
62926;BME280;55732;52.248;-0.844;2022-11-14T00:20:10;100452.92;;;8.97;100.00
62926;BME280;55732;52.248;-0.844;2022-11-14T00:22:36;100449.24;;;8.97;100.00
62926;BME280;55732;52.248;-0.844;2022-11-14T00:25:02;100443.45;;;8.97;99.95
62926;BME280;55732;52.248;-0.844;2022-11-14T00:27:27;100436.42;;;8.96;99.99
62926;BME280;55732;52.248;-0.844;2022-11-14T00:29:53;100429.06;;;8.96;99.97
62926;BME280;55732;52.248;-0.844;2022-11-14T00:32:18;100425.20;;;8.96;99.77
62926;BME280;55732;52.248;-0.844;2022-11-14T00:34:44;100420.10;;;8.95;99.65
62926;BME280;55732;52.248;-0.844;2022-11-14T00:37:10;100422.04;;;8.94;99.56
62926;BME280;55732;52.248;-0.844;2022-11-14T00:39:35;100426.41;;;8.92;99.40
62926;BME280;55732;52.248;-0.844;2022-11-14T00:42:01;100419.71;;;8.89;99.18
62926;BME280;55732;52.248;-0.844;2022-11-14T00:44:26;100420.58;;;8.86;99.19
62926;BME280;55732;52.248;-0.844;2022-11-14T00:46:51;100415.68;;;8.85;99.32
62926;BME280;55732;52.248;-0.844;2022-11-14T00:49:17;100414.45;;;8.83;99.31
62926;BME280;55732;52.248;-0.844;2022-11-14T00:51:42;100415.84;;;8.80;99.18
62926;BME280;55732;52.248;-0.844;2022-11-14T00:54:07;100414.41;;;8.77;99.28
62926;BME280;55732;52.248;-0.844;2022-11-14T00:56:33;100409.85;;;8.74;99.22
62926;BME280;55732;52.248;-0.844;2022-11-14T00:58:58;100418.09;;;8.70;99.21
62926;BME280;55732;52.248;-0.844;2022-11-14T01:01:24;100414.20;;;8.65;98.87
62926;BME280;55732;52.248;-0.844;2022-11-14T01:03:50;100418.40;;;8.63;99.13
62926;BME280;55732;52.248;-0.844;2022-11-14T01:06:16;100414.19;;;8.60;99.37
62926;BME280;55732;52.248;-0.844;2022-11-14T01:08:43;100415.08;;;8.60;99.63
62926;BME280;55732;52.248;-0.844;2022-11-14T01:11:15;100417.89;;;8.61;99.70
62926;BME280;55732;52.248;-0.844;2022-11-14T01:13:41;100415.94;;;8.63;99.82
62926;BME280;55732;52.248;-0.844;2022-11-14T01:16:07;100416.47;;;8.63;99.75
62926;BME280;55732;52.248;-0.844;2022-11-14T01:18:34;100413.48;;;8.64;99.90
62926;BME280;55732;52.248;-0.844;2022-11-14T01:21:06;100414.38;;;8.65;99.90
62926;BME280;55732;52.248;-0.844;2022-11-14T01:23:32;100412.45;;;8.66;99.93
62926;BME280;55732;52.248;-0.844;2022-11-14T01:26:03;100414.04;;;8.67;99.94
62926;BME280;55732;52.248;-0.844;2022-11-14T01:28:29;100405.61;;;8.68;99.94
62926;BME280;55732;52.248;-0.844;2022-11-14T01:30:54;100398.77;;;8.68;99.83
62926;BME280;55732;52.248;-0.844;2022-11-14T01:33:20;100394.56;;;8.68;99.84
62926;BME280;55732;52.248;-0.844;2022-11-14T01:35:45;100391.39;;;8.67;99.93
62926;BME280;55732;52.248;-0.844;2022-11-14T01:38:12;100391.57;;;8.68;99.98
62926;BME280;55732;52.248;-0.844;2022-11-14T01:40:42;100389.12;;;8.68;99.95
62926;BME280;55732;52.248;-0.844;2022-11-14T01:46:04;100379.29;;;8.67;100.00
62926;BME280;55732;52.248;-0.844;2022-11-14T01:48:43;100375.77;;;8.67;100.00
62926;BME280;55732;52.248;-0.844;2022-11-14T01:51:35;100370.16;;;8.67;100.00
62926;BME280;55732;52.248;-0.844;2022-11-14T01:54:07;100365.05;;;8.66;100.00
62926;BME280;55732;52.248;-0.844;2022-11-14T01:56:42;100362.95;;;8.65;99.94
62926;BME280;55732;52.248;-0.844;2022-11-14T01:59:12;100369.44;;;8.65;99.95
62926;BME280;55732;52.248;-0.844;2022-11-14T02:01:45;100362.94;;;8.64;99.92
62926;BME280;55732;52.248;-0.844;2022-11-14T02:04:15;100358.55;;;8.62;99.91
62926;BME280;55732;52.248;-0.844;2022-11-14T02:06:43;100362.08;;;8.60;99.81
62926;BME280;55732;52.248;-0.844;2022-11-14T02:09:09;100359.61;;;8.59;99.89
62926;BME280;55732;52.248;-0.844;2022-11-14T02:11:38;100351.89;;;8.59;99.96
62926;BME280;55732;52.248;-0.844;2022-11-14T02:14:05;100349.43;;;8.59;99.92
62926;BME280;55732;52.248;-0.844;2022-11-14T02:16:31;100348.38;;;8.59;99.84
62926;BME280;55732;52.248;-0.844;2022-11-14T02:18:57;100345.21;;;8.59;99.89
62926;BME280;55732;52.248;-0.844;2022-11-14T02:21:22;100343.99;;;8.59;99.80
62926;BME280;55732;52.248;-0.844;2022-11-14T02:23:48;100346.64;;;8.60;99.86
62926;BME280;55732;52.248;-0.844;2022-11-14T02:26:20;100338.54;;;8.61;99.87
62926;BME280;55732;52.248;-0.844;2022-11-14T02:28:47;100336.44;;;8.59;99.75
62926;BME280;55732;52.248;-0.844;2022-11-14T02:31:14;100339.59;;;8.56;99.71
62926;BME280;55732;52.248;-0.844;2022-11-14T02:33:40;100341.14;;;8.51;99.60
62926;BME280;55732;52.248;-0.844;2022-11-14T02:36:06;100339.39;;;8.47;99.68
62926;BME280;55732;52.248;-0.844;2022-11-14T02:38:31;100333.05;;;8.44;99.73
62926;BME280;55732;52.248;-0.844;2022-11-14T02:40:58;100321.80;;;8.41;99.64
62926;BME280;55732;52.248;-0.844;2022-11-14T02:43:24;100308.47;;;8.39;99.76
62926;BME280;55732;52.248;-0.844;2022-11-14T02:45:50;100306.89;;;8.38;99.90
62926;BME280;55732;52.248;-0.844;2022-11-14T02:48:16;100309.52;;;8.39;99.97
62926;BME280;55732;52.248;-0.844;2022-11-14T02:50:41;100305.84;;;8.40;99.97
62926;BME280;55732;52.248;-0.844;2022-11-14T02:53:07;100300.60;;;8.44;100.00
62926;BME280;55732;52.248;-0.844;2022-11-14T02:55:32;100302.02;;;8.47;100.00
62926;BME280;55732;52.248;-0.844;2022-11-14T02:57:58;100303.05;;;8.50;100.00
62926;BME280;55732;52.248;-0.844;2022-11-14T03:00:23;100296.40;;;8.49;99.86
62926;BME280;55732;52.248;-0.844;2022-11-14T03:02:49;100292.55;;;8.49;99.75
62926;BME280;55732;52.248;-0.844;2022-11-14T03:05:14;100293.25;;;8.49;99.79
62926;BME280;55732;52.248;-0.844;2022-11-14T03:07:40;100294.83;;;8.49;99.36
62926;BME280;55732;52.248;-0.844;2022-11-14T03:10:06;100294.98;;;8.45;99.38
62926;BME280;55732;52.248;-0.844;2022-11-14T03:12:31;100296.02;;;8.41;99.21
62926;BME280;55732;52.248;-0.844;2022-11-14T03:14:57;100302.16;;;8.36;99.17
62926;BME280;55732;52.248;-0.844;2022-11-14T03:17:22;100312.31;;;8.31;99.04
62926;BME280;55732;52.248;-0.844;2022-11-14T03:19:49;100311.20;;;8.28;99.17
62926;BME280;55732;52.248;-0.844;2022-11-14T03:22:14;100302.98;;;8.25;99.23
62926;BME280;55732;52.248;-0.844;2022-11-14T03:24:40;100308.92;;;8.23;99.24
62926;BME280;55732;52.248;-0.844;2022-11-14T03:27:05;100304.88;;;8.21;99.40
62926;BME280;55732;52.248;-0.844;2022-11-14T03:29:30;100301.70;;;8.18;99.31
62926;BME280;55732;52.248;-0.844;2022-11-14T03:31:56;100301.35;;;8.18;99.50
62926;BME280;55732;52.248;-0.844;2022-11-14T03:34:21;100294.84;;;8.16;99.64
62926;BME280;55732;52.248;-0.844;2022-11-14T03:36:47;100289.23;;;8.12;99.64
62926;BME280;55732;52.248;-0.844;2022-11-14T03:39:12;100289.75;;;8.10;99.62
62926;BME280;55732;52.248;-0.844;2022-11-14T03:41:38;100292.37;;;8.07;99.67
62926;BME280;55732;52.248;-0.844;2022-11-14T03:44:03;100292.88;;;8.07;99.84
62926;BME280;55732;52.248;-0.844;2022-11-14T03:46:28;100299.19;;;8.05;99.99
62926;BME280;55732;52.248;-0.844;2022-11-14T03:48:54;100298.30;;;8.04;99.94
62926;BME280;55732;52.248;-0.844;2022-11-14T03:51:19;100293.21;;;8.04;99.99
62926;BME280;55732;52.248;-0.844;2022-11-14T03:53:45;100292.87;;;8.04;100.00
62926;BME280;55732;52.248;-0.844;2022-11-14T03:56:10;100293.40;;;8.05;100.00
62926;BME280;55732;52.248;-0.844;2022-11-14T03:58:35;100293.04;;;8.04;100.00
62926;BME280;55732;52.248;-0.844;2022-11-14T04:01:02;100292.34;;;8.05;100.00
62926;BME280;55732;52.248;-0.844;2022-11-14T04:03:28;100291.48;;;8.05;100.00
62926;BME280;55732;52.248;-0.844;2022-11-14T04:05:53;100290.95;;;8.07;100.00
62926;BME280;55732;52.248;-0.844;2022-11-14T04:08:19;100283.96;;;8.08;100.00
62926;BME280;55732;52.248;-0.844;2022-11-14T04:10:47;100278.35;;;8.10;100.00
62926;BME280;55732;52.248;-0.844;2022-11-14T04:13:14;100278.02;;;8.11;100.00
62926;BME280;55732;52.248;-0.844;2022-11-14T04:15:39;100293.11;;;8.13;100.00
62926;BME280;55732;52.248;-0.844;2022-11-14T04:18:05;100293.80;;;8.14;100.00
62926;BME280;55732;52.248;-0.844;2022-11-14T04:20:30;100299.05;;;8.15;100.00
62926;BME280;55732;52.248;-0.844;2022-11-14T04:22:56;100287.13;;;8.16;100.00
62926;BME280;55732;52.248;-0.844;2022-11-14T04:25:22;100271.52;;;8.17;100.00
62926;BME280;55732;52.248;-0.844;2022-11-14T04:27:47;100266.63;;;8.19;100.00
62926;BME280;55732;52.248;-0.844;2022-11-14T04:30:12;100271.02;;;8.20;100.00
62926;BME280;55732;52.248;-0.844;2022-11-14T04:32:38;100255.95;;;8.22;100.00
62926;BME280;55732;52.248;-0.844;2022-11-14T04:35:03;100253.85;;;8.26;100.00
62926;BME280;55732;52.248;-0.844;2022-11-14T04:37:29;100252.11;;;8.30;100.00
62926;BME280;55732;52.248;-0.844;2022-11-14T04:39:54;100247.60;;;8.34;100.00
62926;BME280;55732;52.248;-0.844;2022-11-14T04:42:23;100246.73;;;8.38;100.00
62926;BME280;55732;52.248;-0.844;2022-11-14T04:44:55;100239.02;;;8.42;100.00
62926;BME280;55732;52.248;-0.844;2022-11-14T04:47:34;100237.10;;;8.44;100.00
62926;BME280;55732;52.248;-0.844;2022-11-14T04:50:06;100229.90;;;8.46;100.00
62926;BME280;55732;52.248;-0.844;2022-11-14T04:52:35;100225.87;;;8.49;100.00
62926;BME280;55732;52.248;-0.844;2022-11-14T04:55:19;100219.02;;;8.53;100.00
62926;BME280;55732;52.248;-0.844;2022-11-14T04:57:44;100221.31;;;8.55;100.00
62926;BME280;55732;52.248;-0.844;2022-11-14T05:00:10;100236.05;;;8.55;100.00
62926;BME280;55732;52.248;-0.844;2022-11-14T05:02:36;100239.56;;;8.55;100.00
62926;BME280;55732;52.248;-0.844;2022-11-14T05:05:01;100241.14;;;8.56;100.00
62926;BME280;55732;52.248;-0.844;2022-11-14T05:07:27;100242.38;;;8.56;100.00
62926;BME280;55732;52.248;-0.844;2022-11-14T05:09:52;100237.63;;;8.54;100.00
62926;BME280;55732;52.248;-0.844;2022-11-14T05:12:18;100232.89;;;8.54;100.00
62926;BME280;55732;52.248;-0.844;2022-11-14T05:14:56;100232.36;;;8.54;100.00
62926;BME280;55732;52.248;-0.844;2022-11-14T05:17:40;100232.71;;;8.54;100.00
62926;BME280;55732;52.248;-0.844;2022-11-14T05:20:12;100233.05;;;8.51;100.00
62926;BME280;55732;52.248;-0.844;2022-11-14T05:22:57;100233.94;;;8.49;100.00
62926;BME280;55732;52.248;-0.844;2022-11-14T05:25:39;100234.30;;;8.46;100.00
62926;BME280;55732;52.248;-0.844;2022-11-14T05:28:05;100223.95;;;8.47;100.00
62926;BME280;55732;52.248;-0.844;2022-11-14T05:30:30;100216.05;;;8.47;100.00
62926;BME280;55732;52.248;-0.844;2022-11-14T05:32:55;100213.23;;;8.46;100.00
62926;BME280;55732;52.248;-0.844;2022-11-14T05:35:21;100212.36;;;8.44;100.00
62926;BME280;55732;52.248;-0.844;2022-11-14T05:37:46;100206.21;;;8.44;100.00
62926;BME280;55732;52.248;-0.844;2022-11-14T05:40:12;100209.90;;;8.45;100.00
62926;BME280;55732;52.248;-0.844;2022-11-14T05:52:29;100192.50;;;8.39;100.00
62926;BME280;55732;52.248;-0.844;2022-11-14T05:55:20;100190.94;;;8.40;100.00
62926;BME280;55732;52.248;-0.844;2022-11-14T05:58:09;100189.36;;;8.42;100.00
62926;BME280;55732;52.248;-0.844;2022-11-14T06:01:25;100179.36;;;8.42;100.00
62926;BME280;55732;52.248;-0.844;2022-11-14T06:03:50;100182.52;;;8.40;100.00
62926;BME280;55732;52.248;-0.844;2022-11-14T06:06:18;100176.73;;;8.41;100.00
62926;BME280;55732;52.248;-0.844;2022-11-14T06:08:44;100183.77;;;8.43;100.00
62926;BME280;55732;52.248;-0.844;2022-11-14T06:11:16;100185.16;;;8.45;100.00
62926;BME280;55732;52.248;-0.844;2022-11-14T06:13:45;100189.55;;;8.48;100.00
62926;BME280;55732;52.248;-0.844;2022-11-14T06:16:17;100195.51;;;8.51;100.00
62926;BME280;55732;52.248;-0.844;2022-11-14T06:18:46;100200.26;;;8.54;100.00
62926;BME280;55732;52.248;-0.844;2022-11-14T06:21:16;100200.79;;;8.55;100.00
62926;BME280;55732;52.248;-0.844;2022-11-14T06:23:46;100195.69;;;8.54;100.00
62926;BME280;55732;52.248;-0.844;2022-11-14T06:26:21;100197.97;;;8.53;100.00
62926;BME280;55732;52.248;-0.844;2022-11-14T06:28:52;100195.52;;;8.54;100.00
62926;BME280;55732;52.248;-0.844;2022-11-14T06:31:21;100195.16;;;8.54;100.00
62926;BME280;55732;52.248;-0.844;2022-11-14T06:34:05;100195.34;;;8.51;100.00
62926;BME280;55732;52.248;-0.844;2022-11-14T06:40:37;100200.95;;;8.47;99.99
62926;BME280;55732;52.248;-0.844;2022-11-14T06:43:09;100206.58;;;8.47;100.00
62926;BME280;55732;52.248;-0.844;2022-11-14T06:45:34;100213.06;;;8.47;100.00
62926;BME280;55732;52.248;-0.844;2022-11-14T06:47:59;100206.93;;;8.47;100.00
62926;BME280;55732;52.248;-0.844;2022-11-14T06:50:25;100210.09;;;8.47;99.96
62926;BME280;55732;52.248;-0.844;2022-11-14T06:52:50;100208.50;;;8.46;99.84
62926;BME280;55732;52.248;-0.844;2022-11-14T06:55:16;100200.94;;;8.41;99.58
62926;BME280;55732;52.248;-0.844;2022-11-14T06:57:41;100200.75;;;8.39;99.78
62926;BME280;55732;52.248;-0.844;2022-11-14T07:00:07;100190.08;;;8.37;99.70
62926;BME280;55732;52.248;-0.844;2022-11-14T07:02:32;100190.08;;;8.36;99.83
62926;BME280;55732;52.248;-0.844;2022-11-14T07:04:58;100185.85;;;8.35;99.93
62926;BME280;55732;52.248;-0.844;2022-11-14T07:07:23;100176.91;;;8.35;99.83
62926;BME280;55732;52.248;-0.844;2022-11-14T07:09:49;100174.98;;;8.33;99.68
62926;BME280;55732;52.248;-0.844;2022-11-14T07:12:14;100179.18;;;8.33;99.86
62926;BME280;55732;52.248;-0.844;2022-11-14T07:14:39;100183.38;;;8.31;99.79
62926;BME280;55732;52.248;-0.844;2022-11-14T07:17:05;100183.52;;;8.26;99.34
62926;BME280;55732;52.248;-0.844;2022-11-14T07:19:30;100181.08;;;8.23;99.47
62926;BME280;55732;52.248;-0.844;2022-11-14T07:21:55;100177.39;;;8.22;99.75
62926;BME280;55732;52.248;-0.844;2022-11-14T07:24:21;100171.06;;;8.21;99.43
62926;BME280;55732;52.248;-0.844;2022-11-14T07:26:46;100169.48;;;8.19;99.55
62926;BME280;55732;52.248;-0.844;2022-11-14T07:29:11;100167.36;;;8.16;99.37
62926;BME280;55732;52.248;-0.844;2022-11-14T07:31:37;100160.54;;;8.14;99.59
62926;BME280;55732;52.248;-0.844;2022-11-14T07:34:02;100161.23;;;8.15;99.92
62926;BME280;55732;52.248;-0.844;2022-11-14T07:36:30;100161.22;;;8.15;99.88
62926;BME280;55732;52.248;-0.844;2022-11-14T07:38:56;100157.20;;;8.18;100.00
62926;BME280;55732;52.248;-0.844;2022-11-14T07:41:21;100159.67;;;8.21;100.00
62926;BME280;55732;52.248;-0.844;2022-11-14T07:43:46;100160.38;;;8.24;99.95
62926;BME280;55732;52.248;-0.844;2022-11-14T07:46:14;100155.45;;;8.27;99.95
62926;BME280;55732;52.248;-0.844;2022-11-14T07:48:40;100157.92;;;8.30;99.97
62926;BME280;55732;52.248;-0.844;2022-11-14T07:51:08;100167.39;;;8.30;99.74
62926;BME280;55732;52.248;-0.844;2022-11-14T07:53:35;100167.23;;;8.31;99.62
62926;BME280;55732;52.248;-0.844;2022-11-14T07:56:03;100172.34;;;8.33;99.65
62926;BME280;55732;52.248;-0.844;2022-11-14T07:58:29;100170.59;;;8.33;99.63
62926;BME280;55732;52.248;-0.844;2022-11-14T08:00:54;100171.47;;;8.35;99.51
62926;BME280;55732;52.248;-0.844;2022-11-14T08:03:20;100169.73;;;8.36;99.35
62926;BME280;55732;52.248;-0.844;2022-11-14T08:05:45;100157.63;;;8.36;99.15
62926;BME280;55732;52.248;-0.844;2022-11-14T08:08:11;100157.78;;;8.38;99.20
62926;BME280;55732;52.248;-0.844;2022-11-14T08:10:36;100151.30;;;8.41;99.32
62926;BME280;55732;52.248;-0.844;2022-11-14T08:13:04;100140.95;;;8.44;99.32
62926;BME280;55732;52.248;-0.844;2022-11-14T08:15:29;100139.02;;;8.45;99.06
62926;BME280;55732;52.248;-0.844;2022-11-14T08:17:59;100144.99;;;8.46;99.07
62926;BME280;55732;52.248;-0.844;2022-11-14T08:20:26;100146.58;;;8.49;99.09
62926;BME280;55732;52.248;-0.844;2022-11-14T08:23:05;100142.88;;;8.51;99.05
62926;BME280;55732;52.248;-0.844;2022-11-14T08:25:31;100140.06;;;8.53;98.88
62926;BME280;55732;52.248;-0.844;2022-11-14T08:27:57;100137.44;;;8.55;98.81
62926;BME280;55732;52.248;-0.844;2022-11-14T08:30:22;100138.49;;;8.58;98.92
62926;BME280;55732;52.248;-0.844;2022-11-14T08:32:47;100134.28;;;8.61;98.90
62926;BME280;55732;52.248;-0.844;2022-11-14T08:35:13;100140.59;;;8.67;99.13
62926;BME280;55732;52.248;-0.844;2022-11-14T08:37:38;100134.98;;;8.72;98.93
62926;BME280;55732;52.248;-0.844;2022-11-14T08:40:04;100134.95;;;8.75;98.63
62926;BME280;55732;52.248;-0.844;2022-11-14T08:42:30;100140.23;;;8.76;98.52
62926;BME280;55732;52.248;-0.844;2022-11-14T08:44:55;100139.17;;;8.78;98.69
62926;BME280;55732;52.248;-0.844;2022-11-14T08:47:21;100144.45;;;8.83;98.81
62926;BME280;55732;52.248;-0.844;2022-11-14T08:49:46;100139.69;;;8.85;98.52
62926;BME280;55732;52.248;-0.844;2022-11-14T08:52:11;100137.40;;;8.88;98.33
62926;BME280;55732;52.248;-0.844;2022-11-14T08:54:37;100131.78;;;8.90;98.26
62926;BME280;55732;52.248;-0.844;2022-11-14T08:57:02;100131.43;;;8.95;98.32
62926;BME280;55732;52.248;-0.844;2022-11-14T08:59:30;100132.64;;;9.00;98.41
62926;BME280;55732;52.248;-0.844;2022-11-14T09:01:55;100129.48;;;9.04;98.31
62926;BME280;55732;52.248;-0.844;2022-11-14T09:04:21;100125.41;;;9.09;98.13
62926;BME280;55732;52.248;-0.844;2022-11-14T09:06:46;100120.84;;;9.14;98.02
62926;BME280;55732;52.248;-0.844;2022-11-14T09:09:12;100119.06;;;9.21;98.10
62926;BME280;55732;52.248;-0.844;2022-11-14T09:11:37;100115.19;;;9.28;98.00
62926;BME280;55732;52.248;-0.844;2022-11-14T09:14:03;100117.98;;;9.31;97.48
62926;BME280;55732;52.248;-0.844;2022-11-14T09:16:28;100124.98;;;9.34;97.56
62926;BME280;55732;52.248;-0.844;2022-11-14T09:18:53;100125.33;;;9.37;97.55
62926;BME280;55732;52.248;-0.844;2022-11-14T09:21:19;100121.81;;;9.40;97.44
62926;BME280;55732;52.248;-0.844;2022-11-14T09:23:47;100122.69;;;9.43;97.52
62926;BME280;55732;52.248;-0.844;2022-11-14T09:26:13;100121.08;;;9.45;97.49
62926;BME280;55732;52.248;-0.844;2022-11-14T09:28:38;100116.85;;;9.48;97.54
62926;BME280;55732;52.248;-0.844;2022-11-14T09:31:06;100112.28;;;9.50;97.59
62926;BME280;55732;52.248;-0.844;2022-11-14T09:33:33;100108.76;;;9.51;97.68
62926;BME280;55732;52.248;-0.844;2022-11-14T09:36:01;100100.66;;;9.55;97.92
62926;BME280;55732;52.248;-0.844;2022-11-14T09:38:27;100099.05;;;9.58;97.61
62926;BME280;55732;52.248;-0.844;2022-11-14T09:46:23;100095.52;;;9.65;97.36
62926;BME280;55732;52.248;-0.844;2022-11-14T09:48:50;100098.47;;;9.68;97.61
62926;BME280;55732;52.248;-0.844;2022-11-14T09:51:20;100091.24;;;9.72;97.85
62926;BME280;55732;52.248;-0.844;2022-11-14T09:56:15;100095.77;;;9.79;97.67
62926;BME280;55732;52.248;-0.844;2022-11-14T09:58:43;100102.08;;;9.83;97.68
62926;BME280;55732;52.248;-0.844;2022-11-14T10:01:30;100102.77;;;9.84;97.55
62926;BME280;55732;52.248;-0.844;2022-11-14T10:04:24;100099.61;;;9.86;97.64
62926;BME280;55732;52.248;-0.844;2022-11-14T10:14:44;100084.75;;;9.99;97.24
62926;BME280;55732;52.248;-0.844;2022-11-14T10:19:59;100085.45;;;10.01;97.17
62926;BME280;55732;52.248;-0.844;2022-11-14T10:27:49;100083.48;;;10.03;97.21
62926;BME280;55732;52.248;-0.844;2022-11-14T10:30:20;100085.23;;;10.03;97.26
62926;BME280;55732;52.248;-0.844;2022-11-14T10:38:12;100067.44;;;10.09;97.04
62926;BME280;55732;52.248;-0.844;2022-11-14T10:40:50;100065.50;;;10.10;97.13
62926;BME280;55732;52.248;-0.844;2022-11-14T10:45:57;100066.20;;;10.11;97.17
62926;BME280;55732;52.248;-0.844;2022-11-14T10:48:31;100065.27;;;10.15;97.32
62926;BME280;55732;52.248;-0.844;2022-11-14T10:51:21;100062.27;;;10.21;97.46
62926;BME280;55732;52.248;-0.844;2022-11-14T10:53:50;100057.16;;;10.25;96.99
62926;BME280;55732;52.248;-0.844;2022-11-14T10:56:18;100050.83;;;10.24;96.72
62926;BME280;55732;52.248;-0.844;2022-11-14T10:58:43;100043.60;;;10.26;97.19
62926;BME280;55732;52.248;-0.844;2022-11-14T11:03:56;100032.29;;;10.28;97.22
62926;BME280;55732;52.248;-0.844;2022-11-14T11:06:25;100034.56;;;10.31;97.53
62926;BME280;55732;52.248;-0.844;2022-11-14T11:08:51;100034.36;;;10.34;97.71
62926;BME280;55732;52.248;-0.844;2022-11-14T11:11:40;100031.88;;;10.38;97.98
62926;BME280;55732;52.248;-0.844;2022-11-14T11:14:17;100026.36;;;10.42;97.95
62926;BME280;55732;52.248;-0.844;2022-11-14T11:16:45;100020.52;;;10.46;97.90
62926;BME280;55732;52.248;-0.844;2022-11-14T11:19:28;100016.41;;;10.51;98.19
62926;BME280;55732;52.248;-0.844;2022-11-14T11:21:55;100018.48;;;10.58;98.32
62926;BME280;55732;52.248;-0.844;2022-11-14T11:24:34;100018.75;;;10.64;98.13
62926;BME280;55732;52.248;-0.844;2022-11-14T11:27:35;100016.08;;;10.68;98.02
62926;BME280;55732;52.248;-0.844;2022-11-14T11:30:04;100012.70;;;10.71;97.82
62926;BME280;55732;52.248;-0.844;2022-11-14T11:32:30;99998.08;;;10.72;97.64
62926;BME280;55732;52.248;-0.844;2022-11-14T11:34:57;99997.73;;;10.71;97.45
62926;BME280;55732;52.248;-0.844;2022-11-14T11:37:28;99993.30;;;10.72;97.84
62926;BME280;55732;52.248;-0.844;2022-11-14T11:39:56;99990.09;;;10.75;97.87
62926;BME280;55732;52.248;-0.844;2022-11-14T11:42:45;99994.82;;;10.79;97.96
62926;BME280;55732;52.248;-0.844;2022-11-14T11:45:15;99991.23;;;10.84;98.13
62926;BME280;55732;52.248;-0.844;2022-11-14T11:47:48;99995.77;;;10.88;98.08
62926;BME280;55732;52.248;-0.844;2022-11-14T11:50:17;99995.55;;;10.91;98.10
62926;BME280;55732;52.248;-0.844;2022-11-14T11:52:51;99996.23;;;10.94;98.11
62926;BME280;55732;52.248;-0.844;2022-11-14T11:55:28;99995.14;;;10.97;98.13
62926;BME280;55732;52.248;-0.844;2022-11-14T11:58:10;99994.38;;;11.00;98.27
62926;BME280;55732;52.248;-0.844;2022-11-14T12:00:37;99998.58;;;11.03;98.43
62926;BME280;55732;52.248;-0.844;2022-11-14T12:03:04;99998.73;;;11.05;98.34
62926;BME280;55732;52.248;-0.844;2022-11-14T12:06:02;100001.00;;;11.07;98.34
62926;BME280;55732;52.248;-0.844;2022-11-14T12:08:51;99993.59;;;11.08;98.52
62926;BME280;55732;52.248;-0.844;2022-11-14T12:11:23;99991.60;;;11.10;98.73
62926;BME280;55732;52.248;-0.844;2022-11-14T12:22:21;99978.86;;;11.28;98.58
62926;BME280;55732;52.248;-0.844;2022-11-14T12:30:55;99969.73;;;11.37;98.59
62926;BME280;55732;52.248;-0.844;2022-11-14T12:33:29;99969.36;;;11.39;98.56
62926;BME280;55732;52.248;-0.844;2022-11-14T12:35:58;99964.95;;;11.41;98.51
62926;BME280;55732;52.248;-0.844;2022-11-14T12:38:24;99957.86;;;11.43;98.57
62926;BME280;55732;52.248;-0.844;2022-11-14T12:40:54;99959.56;;;11.46;98.59
62926;BME280;55732;52.248;-0.844;2022-11-14T12:43:30;99957.23;;;11.49;98.80
62926;BME280;55732;52.248;-0.844;2022-11-14T12:45:58;99954.00;;;11.53;98.92
62926;BME280;55732;52.248;-0.844;2022-11-14T12:50:56;99943.11;;;11.61;98.64
62926;BME280;55732;52.248;-0.844;2022-11-14T13:01:29;99929.14;;;11.64;98.61
62926;BME280;55732;52.248;-0.844;2022-11-14T13:11:46;99926.20;;;11.61;99.19
62926;BME280;55732;52.248;-0.844;2022-11-14T13:14:47;99919.48;;;11.61;99.15
62926;BME280;55732;52.248;-0.844;2022-11-14T13:17:32;99920.38;;;11.60;99.16
62926;BME280;55732;52.248;-0.844;2022-11-14T13:23:04;99920.91;;;11.60;99.39
62926;BME280;55732;52.248;-0.844;2022-11-14T13:31:06;99930.92;;;11.63;99.70
62926;BME280;55732;52.248;-0.844;2022-11-14T13:33:51;99924.39;;;11.64;99.62
62926;BME280;55732;52.248;-0.844;2022-11-14T13:52:27;99895.33;;;11.72;100.00
62926;BME280;55732;52.248;-0.844;2022-11-14T13:54:52;99889.67;;;11.73;100.00
62926;BME280;55732;52.248;-0.844;2022-11-14T14:00:17;99873.06;;;11.77;100.00
62926;BME280;55732;52.248;-0.844;2022-11-14T14:08:18;99859.11;;;11.87;100.00
62926;BME280;55732;52.248;-0.844;2022-11-14T14:19:22;99857.09;;;12.02;99.93
62926;BME280;55732;52.248;-0.844;2022-11-14T14:22:59;99855.67;;;12.02;99.93
62926;BME280;55732;52.248;-0.844;2022-11-14T14:25:03;99852.86;;;12.01;99.74
62926;BME280;55732;52.248;-0.844;2022-11-14T14:30:17;99841.63;;;11.98;99.64
62926;BME280;55732;52.248;-0.844;2022-11-14T14:32:43;99831.73;;;11.98;99.62
62926;BME280;55732;52.248;-0.844;2022-11-14T14:35:38;99820.48;;;12.06;99.56
62926;BME280;55732;52.248;-0.844;2022-11-14T14:38:10;99813.33;;;12.10;99.35
62926;BME280;55732;52.248;-0.844;2022-11-14T14:40:37;99812.80;;;12.10;99.28
62926;BME280;55732;52.248;-0.844;2022-11-14T14:43:05;99805.25;;;12.09;99.11
62926;BME280;55732;52.248;-0.844;2022-11-14T14:45:44;99801.52;;;12.10;99.32
62926;BME280;55732;52.248;-0.844;2022-11-14T14:48:14;99799.02;;;12.11;99.28
62926;BME280;55732;52.248;-0.844;2022-11-14T14:50:57;99792.15;;;12.11;99.14
62926;BME280;55732;52.248;-0.844;2022-11-14T14:53:31;99792.55;;;12.08;99.12
62926;BME280;55732;52.248;-0.844;2022-11-14T14:56:02;99785.48;;;12.08;99.26
62926;BME280;55732;52.248;-0.844;2022-11-14T14:58:30;99784.76;;;12.09;99.25
62926;BME280;55732;52.248;-0.844;2022-11-14T15:03:39;99779.13;;;12.09;99.22
62926;BME280;55732;52.248;-0.844;2022-11-14T15:06:29;99778.60;;;12.09;99.10
62926;BME280;55732;52.248;-0.844;2022-11-14T15:08:59;99772.41;;;12.09;99.26